createdAt,value
2023-03-10T00:01:30.412Z,9.68
2023-03-10T00:04:00.631Z,8.84
2023-03-10T00:06:34.090Z,8.18
2023-03-10T00:09:02.910Z,7.87
2023-03-10T00:11:31.081Z,8.73
2023-03-10T00:13:59.252Z,9.65
2023-03-10T00:16:28.974Z,10.24
2023-03-10T00:18:57.651Z,10.65
2023-03-10T00:21:28.385Z,11.01
2023-03-10T00:23:57.166Z,11.28
2023-03-10T00:26:28.202Z,11.52
2023-03-10T00:28:56.806Z,11.55
2023-03-10T00:31:27.286Z,10.73
2023-03-10T00:33:56.509Z,9.75
2023-03-10T00:36:30.019Z,8.92
2023-03-10T00:39:01.274Z,8.25
2023-03-10T00:41:31.939Z,7.96
2023-03-10T00:44:01.186Z,8.79
2023-03-10T00:46:30.346Z,9.65
2023-03-10T00:48:59.165Z,10.28
2023-03-10T00:51:27.652Z,10.76
2023-03-10T00:53:56.639Z,11.05
2023-03-10T00:56:26.169Z,11.32
2023-03-10T00:58:56.861Z,11.56
2023-03-10T01:01:35.388Z,11.51
2023-03-10T01:04:13.844Z,10.42
2023-03-10T01:06:44.422Z,9.34
2023-03-10T01:09:12.500Z,8.71
2023-03-10T01:11:40.981Z,9.10
2023-03-10T01:14:12.021Z,9.90
2023-03-10T01:16:40.295Z,10.40
2023-03-10T01:19:08.466Z,10.71
2023-03-10T01:21:38.879Z,10.96
2023-03-10T01:24:07.143Z,11.15
2023-03-10T01:26:35.659Z,11.19
2023-03-10T01:29:03.816Z,11.41
2023-03-10T01:31:32.224Z,11.56
2023-03-10T01:34:00.371Z,11.68
2023-03-10T01:36:29.155Z,11.81
2023-03-10T01:38:58.040Z,11.72
2023-03-10T01:41:26.534Z,10.73
2023-03-10T01:43:56.634Z,9.56
2023-03-10T01:46:40.229Z,8.85
2023-03-10T01:49:14.695Z,9.46
2023-03-10T01:51:43.986Z,10.12
2023-03-10T01:54:17.462Z,10.43
2023-03-10T01:56:46.373Z,10.82
2023-03-10T01:59:15.261Z,11.03
2023-03-10T02:01:43.687Z,11.22
2023-03-10T02:04:20.516Z,11.38
2023-03-10T02:06:52.078Z,11.60
2023-03-10T02:09:21.368Z,11.78
2023-03-10T02:11:49.948Z,11.91
2023-03-10T02:14:19.146Z,12.02
2023-03-10T02:16:47.676Z,11.92
2023-03-10T02:19:30.141Z,10.91
2023-03-10T02:22:09.458Z,9.69
2023-03-10T02:24:51.977Z,9.19
2023-03-10T02:27:22.885Z,10.17
2023-03-10T02:30:00.374Z,10.74
2023-03-10T02:32:35.047Z,11.07
2023-03-10T02:35:05.161Z,11.37
2023-03-10T02:37:35.573Z,11.54
2023-03-10T02:40:30.164Z,11.69
2023-03-10T02:43:23.218Z,11.83
2023-03-10T02:45:57.089Z,11.97
2023-03-10T02:48:31.701Z,12.10
2023-03-10T02:51:02.583Z,12.06
2023-03-10T02:53:30.854Z,11.11
2023-03-10T02:56:00.262Z,10.00
2023-03-10T02:58:31.603Z,9.33
2023-03-10T03:01:02.363Z,9.94
2023-03-10T03:03:31.346Z,10.66
2023-03-10T03:05:59.907Z,11.16
2023-03-10T03:08:28.908Z,11.52
2023-03-10T03:10:57.076Z,11.78
2023-03-10T03:13:25.450Z,12.04
2023-03-10T03:15:54.038Z,12.24
2023-03-10T03:18:23.536Z,12.40
2023-03-10T03:20:52.629Z,12.37
2023-03-10T03:23:20.901Z,11.45
2023-03-10T03:25:49.687Z,10.39
2023-03-10T03:28:19.905Z,9.45
2023-03-10T03:30:49.924Z,8.94
2023-03-10T03:33:18.502Z,9.65
2023-03-10T03:35:47.351Z,10.44
2023-03-10T03:38:17.614Z,10.93
2023-03-10T03:40:46.606Z,11.29
2023-03-10T03:43:16.011Z,11.58
2023-03-10T03:45:45.239Z,11.80
2023-03-10T03:48:15.011Z,12.01
2023-03-10T03:50:43.513Z,12.22
2023-03-10T03:53:20.268Z,12.40
2023-03-10T03:55:49.973Z,12.32
2023-03-10T03:58:19.685Z,11.38
2023-03-10T04:00:51.523Z,10.32
2023-03-10T04:03:20.455Z,9.64
2023-03-10T04:05:49.115Z,10.17
2023-03-10T04:08:17.592Z,10.80
2023-03-10T04:10:55.909Z,11.24
2023-03-10T04:13:26.327Z,11.58
2023-03-10T04:15:56.866Z,11.78
2023-03-10T04:18:25.541Z,12.01
2023-03-10T04:20:53.813Z,12.17
2023-03-10T04:23:22.103Z,12.30
2023-03-10T04:25:50.574Z,12.47
2023-03-10T04:28:19.684Z,12.68
2023-03-10T04:30:49.109Z,12.86
2023-03-10T04:33:18.671Z,12.86
2023-03-10T04:35:51.627Z,11.89
2023-03-10T04:38:23.830Z,10.83
2023-03-10T04:40:56.525Z,10.01
2023-03-10T04:43:29.315Z,9.60
2023-03-10T04:45:58.695Z,10.31
2023-03-10T04:48:27.577Z,11.07
2023-03-10T04:50:56.773Z,11.58
2023-03-10T04:53:25.449Z,11.92
2023-03-10T04:55:54.136Z,12.16
2023-03-10T04:58:23.127Z,12.39
2023-03-10T05:01:02.209Z,12.59
2023-03-10T05:03:31.761Z,12.78
2023-03-10T05:06:00.237Z,12.97
2023-03-10T05:08:29.034Z,12.95
2023-03-10T05:10:57.397Z,12.07
2023-03-10T05:13:25.570Z,11.07
2023-03-10T05:15:54.074Z,10.40
2023-03-10T05:18:22.325Z,10.29
2023-03-10T05:20:57.560Z,10.84
2023-03-10T05:23:27.269Z,11.46
2023-03-10T05:25:55.645Z,11.88
2023-03-10T05:28:24.741Z,12.21
2023-03-10T05:30:53.654Z,12.54
2023-03-10T05:33:22.015Z,12.75
2023-03-10T05:35:52.184Z,12.82
2023-03-10T05:38:20.603Z,12.88
2023-03-10T05:40:48.775Z,12.93
2023-03-10T05:43:17.853Z,13.04
2023-03-10T05:45:55.360Z,13.19
2023-03-10T05:48:24.229Z,13.38
2023-03-10T05:51:04.314Z,13.63
2023-03-10T05:53:33.599Z,13.85
2023-03-10T05:56:07.002Z,13.98
2023-03-10T05:58:35.375Z,14.12
2023-03-10T06:01:04.684Z,14.27
2023-03-10T06:03:33.652Z,14.21
2023-03-10T06:06:02.119Z,13.25
2023-03-10T06:08:30.727Z,12.24
2023-03-10T06:10:59.628Z,11.67
2023-03-10T06:13:27.882Z,12.17
2023-03-10T06:16:01.411Z,12.79
2023-03-10T06:18:30.279Z,13.27
2023-03-10T06:20:58.866Z,13.66
2023-03-10T06:23:27.242Z,13.85
2023-03-10T06:26:00.716Z,14.05
2023-03-10T06:28:33.274Z,14.17
2023-03-10T06:31:04.245Z,14.31
2023-03-10T06:33:32.825Z,14.48
2023-03-10T06:36:01.152Z,14.64
2023-03-10T06:38:30.604Z,14.78
2023-03-10T06:40:58.896Z,14.67
2023-03-10T06:43:27.153Z,13.76
2023-03-10T06:45:55.377Z,12.69
2023-03-10T06:48:23.602Z,12.07
2023-03-10T06:50:52.085Z,12.58
2023-03-10T06:53:21.586Z,13.26
2023-03-10T06:56:04.093Z,13.77
2023-03-10T06:58:34.627Z,14.18
2023-03-10T07:01:03.329Z,14.42
2023-03-10T07:03:31.693Z,14.53
2023-03-10T07:06:00.259Z,14.68
2023-03-10T07:08:29.459Z,14.85
2023-03-10T07:10:57.684Z,14.94
2023-03-10T07:13:26.018Z,14.81
2023-03-10T07:15:54.177Z,13.80
2023-03-10T07:18:22.661Z,12.80
2023-03-10T07:20:53.187Z,12.29
2023-03-10T07:23:21.362Z,12.86
2023-03-10T07:25:57.109Z,13.42
2023-03-10T07:28:26.098Z,14.05
2023-03-10T07:30:56.759Z,14.46
2023-03-10T07:33:24.897Z,14.74
2023-03-10T07:35:53.118Z,14.95
2023-03-10T07:38:21.345Z,15.18
2023-03-10T07:40:49.425Z,15.37
2023-03-10T07:43:18.238Z,15.36
2023-03-10T07:45:46.826Z,14.51
2023-03-10T07:48:15.061Z,13.52
2023-03-10T07:50:43.232Z,12.96
2023-03-10T07:53:11.404Z,13.48
2023-03-10T07:55:39.583Z,14.21
2023-03-10T07:58:07.968Z,14.69
2023-03-10T08:00:36.161Z,15.04
2023-03-10T08:03:04.399Z,15.30
2023-03-10T08:05:32.571Z,15.54
2023-03-10T08:08:00.847Z,15.64
2023-03-10T08:10:29.027Z,14.80
2023-03-10T08:12:57.189Z,13.82
2023-03-10T08:15:26.692Z,13.37
2023-03-10T08:17:54.763Z,14.05
2023-03-10T08:20:23.139Z,14.82
2023-03-10T08:22:53.518Z,15.34
2023-03-10T08:25:21.635Z,15.60
2023-03-10T08:27:50.115Z,15.70
2023-03-10T08:30:18.695Z,15.97
2023-03-10T08:32:46.902Z,15.99
2023-03-10T08:35:16.982Z,15.11
2023-03-10T08:37:45.260Z,14.15
2023-03-10T08:40:16.339Z,13.64
2023-03-10T08:42:47.036Z,14.27
2023-03-10T08:45:16.534Z,15.04
2023-03-10T08:47:45.122Z,15.56
2023-03-10T08:50:13.603Z,15.98
2023-03-10T08:52:41.873Z,16.17
2023-03-10T08:55:11.290Z,15.35
2023-03-10T08:57:39.650Z,14.37
2023-03-10T09:00:12.448Z,13.97
2023-03-10T09:02:40.766Z,14.74
2023-03-10T09:05:10.625Z,15.62
2023-03-10T09:07:39.016Z,16.21
2023-03-10T09:10:07.783Z,16.35
2023-03-10T09:12:38.741Z,15.57
2023-03-10T09:15:07.903Z,14.72
2023-03-10T09:17:37.233Z,14.32
2023-03-10T09:20:07.401Z,15.11
2023-03-10T09:22:35.508Z,15.99
2023-03-10T09:25:04.289Z,16.44
2023-03-10T09:27:32.462Z,15.77
2023-03-10T09:30:01.551Z,14.98
2023-03-10T09:32:30.181Z,14.63
2023-03-10T09:34:58.413Z,15.51
2023-03-10T09:37:26.688Z,16.39
2023-03-10T09:39:54.879Z,16.78
2023-03-10T09:42:37.832Z,16.30
2023-03-10T09:45:19.169Z,15.58
2023-03-10T09:47:55.758Z,15.00
2023-03-10T09:50:41.412Z,14.54
2023-03-10T09:54:04.373Z,14.57
2023-03-10T09:56:34.385Z,16.03
2023-03-10T09:59:14.639Z,16.69
2023-03-10T10:01:48.750Z,16.19
2023-03-10T10:04:26.084Z,15.47
2023-03-10T10:06:55.234Z,14.89
2023-03-10T10:09:23.305Z,14.54
2023-03-10T10:11:51.574Z,14.57
2023-03-10T10:14:28.809Z,15.70
2023-03-10T10:17:19.707Z,16.67
2023-03-10T10:19:48.247Z,16.33
2023-03-10T10:22:24.385Z,15.82
2023-03-10T10:25:01.690Z,15.42
2023-03-10T10:27:33.151Z,15.08
2023-03-10T10:30:31.263Z,14.86
2023-03-10T10:33:02.160Z,14.61
2023-03-10T10:35:36.373Z,14.42
2023-03-10T10:38:24.606Z,14.57
2023-03-10T10:41:07.165Z,15.89
2023-03-10T10:43:45.529Z,16.81
2023-03-10T10:46:16.001Z,16.42
2023-03-10T10:48:46.796Z,15.89
2023-03-10T10:51:21.010Z,15.38
2023-03-10T10:53:49.274Z,14.98
2023-03-10T10:56:19.029Z,14.66
2023-03-10T10:59:04.879Z,14.46
2023-03-10T11:01:53.014Z,14.46
2023-03-10T11:04:22.427Z,14.63
2023-03-10T11:06:51.302Z,14.70
2023-03-10T11:09:21.944Z,14.68
2023-03-10T11:11:59.216Z,14.60
2023-03-10T11:14:33.226Z,14.52
2023-03-10T11:17:05.212Z,14.46
2023-03-10T11:19:46.123Z,14.38
2023-03-10T11:22:37.800Z,14.33
2023-03-10T11:25:19.674Z,14.37
2023-03-10T11:28:12.627Z,14.40
2023-03-10T11:31:11.874Z,14.36
2023-03-10T11:33:49.112Z,14.30
2023-03-10T11:36:24.143Z,14.24
2023-03-10T11:38:58.438Z,14.19
2023-03-10T11:41:33.776Z,14.16
2023-03-10T11:44:07.709Z,14.09
2023-03-10T11:46:48.334Z,14.02
2023-03-10T11:49:17.671Z,14.00
2023-03-10T11:51:49.309Z,14.04
2023-03-10T11:54:27.093Z,14.11
2023-03-10T11:56:55.910Z,14.47
2023-03-10T11:59:27.393Z,15.95
2023-03-10T12:02:04.971Z,17.09
2023-03-10T12:04:43.467Z,16.94
2023-03-10T12:07:27.816Z,16.48
2023-03-10T12:10:01.143Z,16.10
2023-03-10T12:12:36.853Z,15.89
2023-03-10T12:15:10.561Z,15.72
2023-03-10T12:17:39.961Z,15.57
2023-03-10T12:20:13.168Z,15.46
2023-03-10T12:22:51.772Z,15.37
2023-03-10T12:25:29.264Z,15.25
2023-03-10T12:28:15.964Z,15.16
2023-03-10T12:30:59.804Z,15.13
2023-03-10T12:33:31.156Z,15.08
2023-03-10T12:36:27.424Z,15.03
2023-03-10T12:39:16.953Z,14.97
2023-03-10T12:41:48.205Z,14.97
2023-03-10T12:44:35.417Z,15.00
2023-03-10T12:47:09.677Z,15.09
2023-03-10T12:49:40.978Z,15.09
2023-03-10T12:52:39.840Z,15.01
2023-03-10T12:55:17.202Z,14.93
2023-03-10T12:57:54.441Z,14.88
2023-03-10T13:00:41.201Z,14.85
2023-03-10T13:03:35.684Z,14.82
2023-03-10T13:06:07.512Z,14.77
2023-03-10T13:08:54.098Z,14.73
2023-03-10T13:11:31.393Z,14.70
2023-03-10T13:14:22.192Z,14.65
2023-03-10T13:17:00.369Z,14.59
2023-03-10T13:19:34.635Z,14.52
2023-03-10T13:22:05.116Z,14.43
2023-03-10T13:24:39.230Z,14.36
2023-03-10T13:27:25.115Z,14.33
2023-03-10T13:29:59.648Z,14.33
2023-03-10T13:32:29.291Z,14.36
2023-03-10T13:34:59.076Z,14.48
2023-03-10T13:37:27.255Z,14.77
2023-03-10T13:40:07.915Z,15.11
2023-03-10T13:42:43.775Z,15.36
2023-03-10T13:45:21.053Z,15.46
2023-03-10T13:47:50.367Z,15.51
2023-03-10T13:50:18.830Z,15.57
2023-03-10T13:52:57.558Z,15.62
2023-03-10T13:55:27.671Z,15.65
2023-03-10T13:57:56.398Z,15.62
2023-03-10T14:00:26.331Z,15.51
2023-03-10T14:02:55.358Z,15.42
2023-03-10T14:05:45.849Z,15.35
2023-03-10T14:08:33.995Z,15.43
2023-03-10T14:11:29.912Z,15.64
2023-03-10T14:13:58.493Z,15.96
2023-03-10T14:17:02.223Z,16.14
2023-03-10T14:19:42.622Z,16.35
2023-03-10T14:22:43.906Z,16.47
2023-03-10T14:25:18.326Z,16.46
2023-03-10T14:27:49.258Z,16.49
2023-03-10T14:30:30.606Z,16.42
2023-03-10T14:33:00.827Z,16.32
2023-03-10T14:35:29.363Z,16.19
2023-03-10T14:37:57.743Z,16.03
2023-03-10T14:40:26.200Z,15.83
2023-03-10T14:42:58.262Z,15.66
2023-03-10T14:45:33.634Z,15.51
2023-03-10T14:48:04.882Z,15.41
2023-03-10T14:50:33.630Z,15.44
2023-03-10T14:53:01.802Z,15.58
2023-03-10T14:55:30.178Z,15.71
2023-03-10T14:58:02.452Z,15.75
2023-03-10T15:00:31.237Z,15.73
2023-03-10T15:02:59.917Z,15.69
2023-03-10T15:05:45.168Z,15.65
2023-03-10T15:08:16.986Z,15.55
2023-03-10T15:10:51.024Z,15.44
2023-03-10T15:13:24.556Z,15.34
2023-03-10T15:15:53.382Z,15.24
2023-03-10T15:18:23.462Z,15.16
2023-03-10T15:20:51.777Z,15.11
2023-03-10T15:23:22.513Z,15.10
2023-03-10T15:25:50.861Z,15.07
2023-03-10T15:28:19.163Z,15.01
2023-03-10T15:30:47.541Z,14.90
2023-03-10T15:33:16.192Z,14.79
2023-03-10T15:35:44.510Z,14.65
2023-03-10T15:38:14.787Z,14.54
2023-03-10T15:40:44.899Z,14.43
2023-03-10T15:43:13.273Z,14.32
2023-03-10T15:45:43.719Z,14.22
2023-03-10T15:48:12.222Z,14.12
2023-03-10T15:50:45.062Z,14.02
2023-03-10T15:53:13.541Z,13.91
2023-03-10T15:55:42.538Z,13.81
2023-03-10T15:58:11.637Z,13.71
2023-03-10T16:00:40.112Z,13.62
2023-03-10T16:03:08.278Z,13.53
2023-03-10T16:05:37.888Z,13.46
2023-03-10T16:08:06.565Z,13.37
2023-03-10T16:10:40.166Z,13.27
2023-03-10T16:13:08.340Z,13.19
2023-03-10T16:15:38.641Z,13.11
2023-03-10T16:18:06.732Z,13.03
2023-03-10T16:20:34.915Z,12.95
2023-03-10T16:23:03.080Z,13.11
2023-03-10T16:25:31.653Z,14.26
2023-03-10T16:27:59.841Z,15.40
2023-03-10T16:30:28.072Z,16.13
2023-03-10T16:33:00.981Z,16.43
2023-03-10T16:35:30.289Z,15.93
2023-03-10T16:38:01.325Z,15.31
2023-03-10T16:40:29.493Z,14.83
2023-03-10T16:42:57.567Z,14.43
2023-03-10T16:45:25.751Z,14.10
2023-03-10T16:47:53.908Z,13.80
2023-03-10T16:50:22.081Z,13.54
2023-03-10T16:52:55.268Z,13.28
2023-03-10T16:55:23.645Z,13.02
2023-03-10T16:57:51.818Z,12.78
2023-03-10T17:00:21.194Z,12.56
2023-03-10T17:02:50.012Z,12.60
2023-03-10T17:05:18.394Z,13.66
2023-03-10T17:07:55.516Z,14.72
2023-03-10T17:10:24.146Z,15.55
2023-03-10T17:12:52.334Z,15.96
2023-03-10T17:15:20.604Z,15.42
2023-03-10T17:17:48.764Z,14.73
2023-03-10T17:20:18.615Z,14.18
2023-03-10T17:22:46.750Z,13.72
2023-03-10T17:25:15.231Z,13.35
2023-03-10T17:27:43.753Z,13.04
2023-03-10T17:30:14.012Z,12.76
2023-03-10T17:32:42.287Z,12.53
2023-03-10T17:35:10.581Z,12.66
2023-03-10T17:37:38.853Z,13.80
2023-03-10T17:40:09.560Z,14.90
2023-03-10T17:42:37.761Z,15.68
2023-03-10T17:45:06.995Z,16.00
2023-03-10T17:47:35.550Z,15.38
2023-03-10T17:50:04.039Z,14.60
2023-03-10T17:52:32.293Z,13.98
2023-03-10T17:55:01.190Z,13.51
2023-03-10T17:57:29.357Z,13.12
2023-03-10T17:59:57.533Z,13.03
2023-03-10T18:02:26.043Z,13.97
2023-03-10T18:04:54.487Z,15.04
2023-03-10T18:07:22.558Z,15.50
2023-03-10T18:09:50.735Z,14.90
2023-03-10T18:12:18.906Z,14.13
2023-03-10T18:14:47.076Z,13.53
2023-03-10T18:17:15.250Z,13.03
2023-03-10T18:19:43.421Z,12.62
2023-03-10T18:22:11.695Z,12.57
2023-03-10T18:24:39.868Z,13.56
2023-03-10T18:27:08.250Z,14.56
2023-03-10T18:29:36.625Z,15.11
2023-03-10T18:32:05.199Z,14.49
2023-03-10T18:34:33.393Z,13.65
2023-03-10T18:37:01.662Z,12.97
2023-03-10T18:39:30.126Z,12.46
2023-03-10T18:41:58.202Z,12.36
2023-03-10T18:44:26.368Z,13.36
2023-03-10T18:46:54.540Z,14.41
2023-03-10T18:49:22.923Z,14.93
2023-03-10T18:51:51.192Z,14.27
2023-03-10T18:54:19.671Z,13.50
2023-03-10T18:56:47.845Z,12.87
2023-03-10T18:59:16.017Z,12.63
2023-03-10T19:01:44.239Z,13.49
2023-03-10T19:04:12.566Z,14.38
2023-03-10T19:06:40.943Z,14.78
2023-03-10T19:09:09.216Z,14.15
2023-03-10T19:11:38.677Z,13.30
2023-03-10T19:14:07.212Z,12.57
2023-03-10T19:16:39.884Z,12.28
2023-03-10T19:19:08.048Z,13.16
2023-03-10T19:21:37.555Z,14.06
2023-03-10T19:24:06.229Z,14.71
2023-03-10T19:26:34.508Z,14.93
2023-03-10T19:29:03.518Z,14.19
2023-03-10T19:31:31.792Z,13.34
2023-03-10T19:33:59.949Z,12.61
2023-03-10T19:36:29.670Z,12.04
2023-03-10T19:38:58.345Z,11.82
2023-03-10T19:41:26.717Z,12.68
2023-03-10T19:43:54.891Z,13.57
2023-03-10T19:46:23.092Z,14.20
2023-03-10T19:48:51.266Z,14.66
2023-03-10T19:51:22.700Z,14.86
2023-03-10T19:53:52.666Z,14.12
2023-03-10T19:56:21.795Z,13.29
2023-03-10T19:58:50.488Z,12.63
2023-03-10T20:01:24.513Z,12.10
2023-03-10T20:03:54.891Z,11.89
2023-03-10T20:06:23.713Z,12.76
2023-03-10T20:08:52.382Z,13.63
2023-03-10T20:11:21.786Z,14.22
2023-03-10T20:13:52.313Z,14.67
2023-03-10T20:16:22.781Z,14.79
2023-03-10T20:18:50.931Z,13.95
2023-03-10T20:21:19.080Z,13.10
2023-03-10T20:23:48.723Z,12.50
2023-03-10T20:26:18.205Z,12.02
2023-03-10T20:28:46.674Z,11.82
2023-03-10T20:31:20.148Z,12.63
2023-03-10T20:33:48.543Z,13.53
2023-03-10T20:36:16.717Z,14.14
2023-03-10T20:38:46.540Z,14.59
2023-03-10T20:41:16.244Z,14.77
2023-03-10T20:43:44.528Z,13.97
2023-03-10T20:46:13.550Z,13.06
2023-03-10T20:48:41.775Z,12.37
2023-03-10T20:51:09.947Z,12.02
2023-03-10T20:53:38.124Z,12.74
2023-03-10T20:56:10.403Z,13.58
2023-03-10T20:58:38.725Z,14.15
2023-03-10T21:01:07.110Z,14.53
2023-03-10T21:03:35.419Z,14.64
2023-03-10T21:06:03.790Z,13.89
2023-03-10T21:08:31.964Z,12.99
2023-03-10T21:11:00.364Z,12.26
2023-03-10T21:13:28.614Z,11.88
2023-03-10T21:15:56.786Z,12.61
2023-03-10T21:18:26.088Z,13.45
2023-03-10T21:20:54.273Z,14.04
2023-03-10T21:23:22.537Z,14.43
2023-03-10T21:25:50.712Z,14.56
2023-03-10T21:28:19.001Z,13.88
2023-03-10T21:30:47.179Z,13.02
2023-03-10T21:33:15.534Z,12.32
2023-03-10T21:35:43.719Z,11.76
2023-03-10T21:38:11.986Z,11.29
2023-03-10T21:40:40.369Z,11.11
2023-03-10T21:43:09.667Z,11.95
2023-03-10T21:45:38.658Z,12.86
2023-03-10T21:48:06.926Z,13.54
2023-03-10T21:50:35.213Z,14.04
2023-03-10T21:53:03.660Z,14.23
2023-03-10T21:55:34.718Z,13.55
2023-03-10T21:58:03.606Z,12.71
2023-03-10T22:00:32.604Z,12.05
2023-03-10T22:03:00.773Z,11.50
2023-03-10T22:05:29.150Z,11.27
2023-03-10T22:07:57.422Z,12.09
2023-03-10T22:10:25.697Z,13.00
2023-03-10T22:12:53.868Z,13.67
2023-03-10T22:15:25.321Z,14.19
2023-03-10T22:17:55.428Z,14.38
2023-03-10T22:20:26.459Z,13.65
2023-03-10T22:22:54.648Z,12.82
2023-03-10T22:25:23.336Z,12.19
2023-03-10T22:27:53.968Z,11.68
2023-03-10T22:30:26.330Z,11.26
2023-03-10T22:32:55.274Z,11.11
2023-03-10T22:35:24.311Z,11.96
2023-03-10T22:37:52.789Z,12.92
2023-03-10T22:40:23.219Z,13.60
2023-03-10T22:42:51.383Z,13.89
2023-03-10T22:45:23.642Z,13.11
2023-03-10T22:47:57.261Z,12.28
2023-03-10T22:50:32.646Z,11.55
2023-03-10T22:53:06.429Z,10.98
2023-03-10T22:55:37.640Z,10.81
2023-03-10T22:58:07.657Z,11.76
2023-03-10T23:00:36.245Z,12.80
2023-03-10T23:03:05.925Z,13.47
2023-03-10T23:05:34.443Z,13.75
2023-03-10T23:08:02.504Z,13.03
2023-03-10T23:10:32.704Z,12.14
2023-03-10T23:13:02.739Z,11.38
2023-03-10T23:15:33.788Z,10.76
2023-03-10T23:18:02.262Z,10.52
2023-03-10T23:20:34.116Z,11.38
2023-03-10T23:23:04.006Z,12.33
2023-03-10T23:25:41.011Z,13.02
2023-03-10T23:28:10.932Z,13.52
2023-03-10T23:30:41.036Z,13.65
2023-03-10T23:33:12.564Z,12.88
2023-03-10T23:35:41.336Z,11.95
2023-03-10T23:38:10.159Z,11.22
2023-03-10T23:40:38.636Z,10.88
2023-03-10T23:43:08.151Z,11.66
2023-03-10T23:45:38.317Z,12.51
2023-03-10T23:48:09.278Z,13.09
2023-03-10T23:50:40.446Z,13.55
2023-03-10T23:53:10.558Z,13.88
2023-03-10T23:55:40.933Z,13.93
2023-03-10T23:58:10.277Z,13.04
